createdAt,value
2023-02-28T00:01:36.940Z,5.10
2023-02-28T00:04:04.341Z,4.80
2023-02-28T00:06:31.637Z,4.65
2023-02-28T00:08:58.964Z,4.90
2023-02-28T00:11:26.400Z,4.65
2023-02-28T00:13:53.903Z,4.70
2023-02-28T00:16:24.867Z,4.20
2023-02-28T00:18:52.461Z,4.55
2023-02-28T00:21:20.849Z,4.53
2023-02-28T00:23:48.312Z,4.82
2023-02-28T00:26:15.606Z,4.90
2023-02-28T00:28:46.190Z,5.38
2023-02-28T00:31:13.693Z,4.85
2023-02-28T00:33:41.008Z,4.63
2023-02-28T00:36:11.664Z,4.10
2023-02-28T00:38:40.213Z,4.25
2023-02-28T00:41:08.567Z,4.25
2023-02-28T00:43:38.415Z,4.25
2023-02-28T00:46:06.219Z,4.53
2023-02-28T00:48:33.952Z,4.75
2023-02-28T00:51:02.523Z,4.40
2023-02-28T00:53:30.695Z,4.20
2023-02-28T00:55:59.433Z,4.30
2023-02-28T00:58:27.685Z,4.47
2023-02-28T01:00:55.424Z,4.00
2023-02-28T01:03:23.790Z,4.25
2023-02-28T01:05:51.549Z,4.28
2023-02-28T01:08:18.843Z,4.53
2023-02-28T01:10:46.547Z,4.75
2023-02-28T01:13:14.210Z,4.45
2023-02-28T01:15:46.689Z,4.50
2023-02-28T01:18:14.007Z,4.70
2023-02-28T01:20:41.378Z,4.50
2023-02-28T01:23:10.120Z,4.75
2023-02-28T01:25:37.857Z,4.95
2023-02-28T01:28:06.896Z,4.10
2023-02-28T01:30:35.429Z,4.53
2023-02-28T01:33:02.746Z,4.55
2023-02-28T01:35:33.630Z,4.40
2023-02-28T01:38:09.533Z,5.00
2023-02-28T01:40:43.242Z,4.47
2023-02-28T01:43:30.882Z,5.20
2023-02-28T01:45:59.580Z,4.72
2023-02-28T01:48:33.561Z,4.47
2023-02-28T01:51:11.161Z,4.55
2023-02-28T01:53:44.916Z,4.78
2023-02-28T01:56:21.409Z,4.63
2023-02-28T01:58:53.192Z,4.43
2023-02-28T02:01:23.523Z,4.90
2023-02-28T02:03:59.719Z,4.68
2023-02-28T02:06:31.783Z,4.55
2023-02-28T02:08:59.157Z,4.75
2023-02-28T02:11:27.305Z,4.10
2023-02-28T02:14:14.585Z,4.50
2023-02-28T02:17:06.861Z,5.18
2023-02-28T02:22:39.835Z,4.35
2023-02-28T02:25:17.949Z,4.43
2023-02-28T02:27:54.421Z,4.65
2023-02-28T02:30:40.419Z,4.22
2023-02-28T02:33:18.200Z,4.50
2023-02-28T02:36:20.686Z,4.60
2023-02-28T02:39:14.295Z,4.45
2023-02-28T02:41:48.980Z,4.43
2023-02-28T02:44:21.538Z,4.40
2023-02-28T02:46:51.252Z,4.45
2023-02-28T02:49:29.688Z,4.50
2023-02-28T02:52:01.783Z,4.45
2023-02-28T02:54:32.028Z,4.43
2023-02-28T02:57:05.779Z,4.15
2023-02-28T02:59:34.723Z,4.28
2023-02-28T03:02:07.302Z,4.55
2023-02-28T03:04:44.435Z,4.20
2023-02-28T03:07:11.785Z,4.22
2023-02-28T03:09:39.928Z,4.13
2023-02-28T03:12:13.932Z,4.07
2023-02-28T03:15:33.295Z,4.30
2023-02-28T03:18:12.528Z,4.47
2023-02-28T03:20:53.335Z,4.47
2023-02-28T03:23:24.558Z,4.22
2023-02-28T03:26:05.117Z,4.50
2023-02-28T03:28:52.021Z,4.30
2023-02-28T03:31:25.319Z,4.53
2023-02-28T03:33:59.645Z,4.40
2023-02-28T03:36:30.921Z,4.50
2023-02-28T03:39:06.574Z,4.57
2023-02-28T03:41:41.048Z,4.38
2023-02-28T03:44:16.494Z,4.30
2023-02-28T03:46:51.998Z,4.82
2023-02-28T03:49:24.751Z,4.75
2023-02-28T03:51:55.135Z,4.43
2023-02-28T03:54:37.788Z,4.85
2023-02-28T03:57:28.072Z,4.97
2023-02-28T04:00:02.812Z,4.60
2023-02-28T04:02:43.278Z,4.57
2023-02-28T04:05:10.760Z,4.65
2023-02-28T04:07:38.277Z,4.80
2023-02-28T04:10:06.208Z,4.75
2023-02-28T04:12:33.535Z,4.82
2023-02-28T04:15:00.842Z,4.20
2023-02-28T04:17:28.770Z,4.97
2023-02-28T04:19:58.199Z,4.80
2023-02-28T04:22:28.694Z,4.75
2023-02-28T04:24:55.982Z,4.90
2023-02-28T04:27:23.770Z,4.97
2023-02-28T04:29:51.054Z,5.15
2023-02-28T04:32:18.588Z,4.90
2023-02-28T04:34:45.989Z,4.88
2023-02-28T04:37:14.423Z,5.25
2023-02-28T04:39:42.935Z,4.90
2023-02-28T04:42:11.529Z,4.72
2023-02-28T04:44:38.790Z,5.25
2023-02-28T04:47:06.348Z,4.75
2023-02-28T04:49:33.742Z,5.18
2023-02-28T04:52:01.162Z,4.82
2023-02-28T04:54:29.420Z,5.20
2023-02-28T04:56:57.060Z,5.30
2023-02-28T04:59:24.541Z,5.13
2023-02-28T05:01:51.968Z,4.75
2023-02-28T05:04:19.384Z,5.15
2023-02-28T05:06:46.754Z,5.50
2023-02-28T05:09:14.096Z,4.90
2023-02-28T05:11:41.836Z,4.70
2023-02-28T05:14:14.979Z,5.05
2023-02-28T05:16:42.651Z,4.32
2023-02-28T05:19:10.397Z,4.45
2023-02-28T05:21:40.887Z,4.70
2023-02-28T05:24:11.924Z,4.60
2023-02-28T05:26:41.959Z,4.87
2023-02-28T05:29:10.137Z,4.70
2023-02-28T05:31:38.969Z,4.70
2023-02-28T05:34:06.476Z,4.93
2023-02-28T05:36:34.194Z,5.10
2023-02-28T05:39:01.602Z,5.07
2023-02-28T05:41:29.454Z,5.07
2023-02-28T05:43:58.765Z,4.28
2023-02-28T05:46:26.473Z,4.85
2023-02-28T05:48:53.895Z,5.07
2023-02-28T05:51:21.220Z,4.90
2023-02-28T05:53:50.198Z,4.70
2023-02-28T05:56:17.547Z,4.47
2023-02-28T05:58:44.921Z,5.00
2023-02-28T06:01:32.177Z,5.32
2023-02-28T06:04:01.128Z,4.55
2023-02-28T06:06:29.151Z,5.40
2023-02-28T06:08:57.452Z,4.78
2023-02-28T06:11:28.659Z,4.82
2023-02-28T06:14:01.562Z,4.88
2023-02-28T06:16:30.229Z,5.25
2023-02-28T06:19:02.787Z,5.15
2023-02-28T06:21:31.342Z,5.13
2023-02-28T06:24:00.604Z,5.22
2023-02-28T06:26:28.088Z,5.57
2023-02-28T06:28:55.797Z,5.10
2023-02-28T06:31:24.291Z,4.95
2023-02-28T06:33:51.817Z,5.65
2023-02-28T06:36:19.378Z,5.60
2023-02-28T06:38:46.893Z,5.35
2023-02-28T06:41:14.233Z,5.72
2023-02-28T06:43:43.172Z,5.43
2023-02-28T06:46:14.561Z,5.20
2023-02-28T06:48:43.991Z,5.30
2023-02-28T06:51:15.737Z,5.30
2023-02-28T06:53:43.117Z,5.30
2023-02-28T06:56:14.208Z,5.80
2023-02-28T06:58:41.883Z,5.22
2023-02-28T07:01:09.790Z,5.05
2023-02-28T07:03:37.752Z,5.22
2023-02-28T07:06:06.598Z,5.22
2023-02-28T07:08:35.393Z,5.00
2023-02-28T07:11:03.591Z,5.20
2023-02-28T07:13:31.064Z,5.43
2023-02-28T07:16:03.160Z,5.20
2023-02-28T07:20:58.345Z,5.32
2023-02-28T07:23:25.778Z,5.07
2023-02-28T07:25:54.055Z,5.50
2023-02-28T07:28:21.794Z,5.80
2023-02-28T07:30:49.366Z,5.40
2023-02-28T07:33:17.157Z,5.55
2023-02-28T07:35:44.779Z,5.20
2023-02-28T07:38:13.579Z,5.38
2023-02-28T07:40:41.225Z,5.60
2023-02-28T07:43:08.656Z,4.93
2023-02-28T07:45:36.148Z,5.45
2023-02-28T07:48:06.192Z,5.78
2023-02-28T07:50:33.476Z,5.32
2023-02-28T07:53:00.918Z,5.40
2023-02-28T07:55:28.511Z,5.30
2023-02-28T07:57:56.088Z,5.22
2023-02-28T08:00:24.147Z,5.38
2023-02-28T08:02:54.265Z,5.25
2023-02-28T08:05:22.259Z,5.03
2023-02-28T08:07:50.814Z,5.03
2023-02-28T08:10:18.337Z,5.20
2023-02-28T08:12:48.009Z,5.70
2023-02-28T08:15:15.361Z,5.20
2023-02-28T08:17:42.701Z,5.25
2023-02-28T08:20:11.395Z,5.60
2023-02-28T08:22:38.773Z,5.13
2023-02-28T08:25:09.503Z,5.25
2023-02-28T08:27:37.418Z,5.45
2023-02-28T08:30:05.169Z,5.50
2023-02-28T08:32:34.471Z,5.72
2023-02-28T08:35:04.800Z,5.45
2023-02-28T08:37:32.178Z,5.47
2023-02-28T08:39:59.500Z,4.97
2023-02-28T08:42:26.983Z,5.20
2023-02-28T08:44:54.338Z,5.05
2023-02-28T08:47:21.684Z,5.40
2023-02-28T08:49:49.066Z,5.10
2023-02-28T08:52:16.577Z,4.90
2023-02-28T08:54:43.889Z,4.45
2023-02-28T08:57:11.278Z,5.32
2023-02-28T08:59:38.671Z,4.93
2023-02-28T09:02:06.229Z,5.43
2023-02-28T09:04:35.147Z,5.43
2023-02-28T09:07:02.488Z,5.70
2023-02-28T09:09:29.780Z,5.50
2023-02-28T09:11:57.732Z,5.70
2023-02-28T09:14:26.049Z,5.55
2023-02-28T09:16:53.558Z,5.75
2023-02-28T09:19:20.903Z,5.85
2023-02-28T09:21:48.251Z,5.32
2023-02-28T09:24:19.149Z,5.35
2023-02-28T09:27:03.356Z,4.80
2023-02-28T09:29:33.812Z,4.75
2023-02-28T09:32:01.878Z,4.80
2023-02-28T09:34:31.893Z,5.05
2023-02-28T09:36:59.378Z,4.97
2023-02-28T09:39:27.863Z,5.13
2023-02-28T09:41:56.844Z,4.10
2023-02-28T09:44:31.884Z,4.55
2023-02-28T09:47:06.310Z,4.65
2023-02-28T09:49:41.078Z,4.47
2023-02-28T09:52:17.120Z,4.45
2023-02-28T09:54:44.444Z,4.22
2023-02-28T09:57:28.290Z,4.28
2023-02-28T10:00:02.516Z,4.03
2023-02-28T10:02:39.845Z,4.07
2023-02-28T10:05:11.963Z,4.68
2023-02-28T10:07:59.995Z,4.55
2023-02-28T10:10:34.075Z,4.75
2023-02-28T10:13:05.623Z,4.68
2023-02-28T10:15:36.378Z,5.18
2023-02-28T10:18:09.168Z,5.32
2023-02-28T10:20:41.058Z,5.20
2023-02-28T10:23:20.339Z,5.63
2023-02-28T10:26:17.619Z,5.80
2023-02-28T10:28:46.597Z,5.55
2023-02-28T10:31:19.936Z,5.43
2023-02-28T10:33:48.905Z,5.65
2023-02-28T10:36:20.856Z,5.55
2023-02-28T10:41:27.753Z,5.30
2023-02-28T10:44:14.772Z,5.60
2023-02-28T10:46:43.482Z,5.20
2023-02-28T10:49:30.319Z,5.47
2023-02-28T10:52:00.788Z,5.97
2023-02-28T10:54:38.917Z,5.55
2023-02-28T10:57:19.645Z,5.85
2023-02-28T10:59:51.220Z,5.82
2023-02-28T11:02:38.609Z,5.28
2023-02-28T11:05:37.147Z,5.65
2023-02-28T11:08:15.104Z,5.82
2023-02-28T11:10:48.258Z,5.65
2023-02-28T11:13:21.859Z,5.68
2023-02-28T11:15:55.237Z,6.45
2023-02-28T11:18:30.171Z,6.20
2023-02-28T11:21:00.647Z,5.20
2023-02-28T11:23:30.760Z,5.72
2023-02-28T11:26:02.035Z,5.82
2023-02-28T11:28:35.080Z,6.00
2023-02-28T11:31:06.643Z,5.68
2023-02-28T11:33:51.303Z,5.03
2023-02-28T11:36:25.823Z,5.63
2023-02-28T11:39:03.618Z,5.53
2023-02-28T11:41:55.407Z,5.43
2023-02-28T11:44:55.971Z,5.30
2023-02-28T11:47:35.412Z,5.32
2023-02-28T11:50:08.729Z,5.43
2023-02-28T11:52:48.302Z,5.85
2023-02-28T11:55:22.092Z,5.30
2023-02-28T11:58:22.806Z,5.40
2023-02-28T12:00:56.132Z,6.03
2023-02-28T12:04:05.216Z,6.13
2023-02-28T12:06:46.225Z,5.80
2023-02-28T12:09:37.993Z,6.30
2023-02-28T12:12:28.776Z,6.13
2023-02-28T12:15:17.440Z,5.78
2023-02-28T12:18:31.923Z,6.07
2023-02-28T12:21:06.647Z,6.53
2023-02-28T12:24:21.619Z,6.03
2023-02-28T12:26:51.553Z,6.05
2023-02-28T12:29:31.119Z,6.18
2023-02-28T12:32:15.424Z,6.10
2023-02-28T12:34:48.620Z,6.38
2023-02-28T12:37:26.054Z,6.47
2023-02-28T12:40:01.069Z,6.38
2023-02-28T12:42:36.161Z,6.70
2023-02-28T12:45:11.330Z,6.80
2023-02-28T12:47:41.849Z,6.60
2023-02-28T12:50:12.660Z,7.15
2023-02-28T12:53:01.417Z,6.93
2023-02-28T12:55:44.085Z,6.82
2023-02-28T12:58:35.941Z,6.60
2023-02-28T13:01:29.139Z,6.97
2023-02-28T13:04:18.696Z,7.18
2023-02-28T13:07:00.918Z,6.95
2023-02-28T13:11:59.383Z,6.80
2023-02-28T13:14:44.652Z,7.28
2023-02-28T13:17:23.394Z,7.47
2023-02-28T13:19:53.507Z,7.38
2023-02-28T13:22:39.879Z,7.60
2023-02-28T13:25:25.796Z,7.28
2023-02-28T13:27:58.032Z,7.13
2023-02-28T13:30:53.975Z,7.65
2023-02-28T13:33:32.066Z,7.00
2023-02-28T13:36:19.447Z,7.55
2023-02-28T13:38:48.843Z,7.35
2023-02-28T13:41:36.386Z,7.47
2023-02-28T13:44:18.251Z,7.07
2023-02-28T13:46:48.367Z,7.43
2023-02-28T13:49:27.649Z,7.53
2023-02-28T13:52:07.039Z,6.70
2023-02-28T13:54:49.432Z,7.03
2023-02-28T13:57:35.439Z,7.05
2023-02-28T14:00:33.641Z,6.40
2023-02-28T14:03:07.416Z,5.97
2023-02-28T14:05:37.079Z,6.78
2023-02-28T14:08:24.034Z,6.25
2023-02-28T14:11:04.049Z,6.60
2023-02-28T14:13:48.310Z,6.43
2023-02-28T14:16:29.882Z,6.60
2023-02-28T14:19:02.530Z,7.15
2023-02-28T14:21:36.616Z,6.72
2023-02-28T14:24:25.937Z,6.53
2023-02-28T14:27:15.119Z,6.55
2023-02-28T14:29:52.589Z,7.22
2023-02-28T14:32:36.344Z,6.45
2023-02-28T14:35:12.595Z,6.70
2023-02-28T14:37:42.116Z,7.00
2023-02-28T14:40:30.658Z,6.80
2023-02-28T14:43:01.472Z,7.32
2023-02-28T14:45:34.653Z,6.43
2023-02-28T14:48:03.566Z,6.63
2023-02-28T14:50:34.777Z,6.63
2023-02-28T14:53:03.216Z,6.82
2023-02-28T14:55:33.483Z,6.20
2023-02-28T14:58:05.358Z,7.15
2023-02-28T15:00:35.743Z,6.82
2023-02-28T15:03:32.932Z,6.85
2023-02-28T15:06:03.401Z,6.90
2023-02-28T15:08:36.793Z,6.72
2023-02-28T15:11:24.715Z,6.68
2023-02-28T15:13:55.665Z,6.72
2023-02-28T15:16:37.504Z,7.15
2023-02-28T15:19:13.888Z,6.95
2023-02-28T15:21:49.116Z,8.05
2023-02-28T15:24:28.276Z,6.95
2023-02-28T15:27:03.853Z,6.72
2023-02-28T15:29:38.479Z,6.80
2023-02-28T15:32:08.613Z,7.20
2023-02-28T15:34:45.059Z,7.07
2023-02-28T15:37:29.520Z,7.15
2023-02-28T15:39:59.704Z,6.72
2023-02-28T15:42:29.866Z,6.72
2023-02-28T15:44:58.330Z,7.13
2023-02-28T15:47:29.539Z,7.20
2023-02-28T15:50:11.644Z,7.10
2023-02-28T15:52:43.517Z,7.38
2023-02-28T15:55:23.778Z,6.75
2023-02-28T15:58:01.128Z,7.40
2023-02-28T16:00:30.570Z,7.78
2023-02-28T16:02:58.163Z,7.38
2023-02-28T16:05:32.933Z,7.78
2023-02-28T16:08:11.264Z,7.65
2023-02-28T16:10:38.609Z,7.75
2023-02-28T16:13:06.056Z,7.07
2023-02-28T16:15:42.535Z,7.57
2023-02-28T16:18:13.113Z,7.35
2023-02-28T16:20:40.937Z,7.55
2023-02-28T16:23:09.109Z,7.53
2023-02-28T16:25:40.449Z,7.43
2023-02-28T16:28:18.740Z,7.07
2023-02-28T16:30:46.283Z,7.80
2023-02-28T16:33:16.125Z,7.53
2023-02-28T16:35:43.479Z,7.93
2023-02-28T16:38:10.996Z,6.88
2023-02-28T16:40:38.488Z,7.43
2023-02-28T16:43:16.140Z,7.22
2023-02-28T16:45:43.758Z,6.97
2023-02-28T16:48:14.602Z,6.88
2023-02-28T16:50:43.221Z,7.45
2023-02-28T16:53:10.543Z,7.40
2023-02-28T16:55:38.126Z,7.25
2023-02-28T16:58:05.496Z,6.85
2023-02-28T17:00:34.036Z,7.50
2023-02-28T17:03:03.749Z,7.00
2023-02-28T17:05:39.436Z,7.85
2023-02-28T17:08:06.788Z,7.35
2023-02-28T17:10:34.225Z,8.40
2023-02-28T17:13:14.305Z,7.53
2023-02-28T17:15:44.589Z,7.70
2023-02-28T17:18:18.405Z,7.85
2023-02-28T17:20:47.240Z,8.43
2023-02-28T17:23:14.644Z,8.32
2023-02-28T17:25:41.947Z,8.40
2023-02-28T17:28:10.174Z,8.75
2023-02-28T17:30:37.504Z,8.48
2023-02-28T17:33:04.903Z,8.00
2023-02-28T17:35:32.215Z,7.35
2023-02-28T17:37:59.613Z,8.35
2023-02-28T17:40:26.947Z,7.93
2023-02-28T17:42:56.124Z,8.25
2023-02-28T17:45:23.648Z,8.23
2023-02-28T17:47:51.421Z,8.30
2023-02-28T17:50:22.170Z,7.85
2023-02-28T17:52:51.441Z,8.55
2023-02-28T17:55:20.072Z,8.70
2023-02-28T17:57:47.645Z,8.52
2023-02-28T18:00:19.459Z,9.10
2023-02-28T18:05:14.301Z,9.10
2023-02-28T18:07:41.956Z,9.65
2023-02-28T18:10:20.488Z,8.73
2023-02-28T18:12:52.768Z,9.02
2023-02-28T18:15:21.611Z,8.88
2023-02-28T18:17:50.261Z,9.55
2023-02-28T18:20:18.502Z,8.50
2023-02-28T18:22:46.108Z,9.73
2023-02-28T18:25:16.914Z,9.25
2023-02-28T18:27:54.168Z,9.07
2023-02-28T18:30:22.210Z,10.30
2023-02-28T18:32:49.654Z,9.73
2023-02-28T18:35:34.972Z,10.07
2023-02-28T18:38:14.738Z,10.38
2023-02-28T18:40:43.546Z,9.50
2023-02-28T18:43:10.952Z,9.88
2023-02-28T18:45:39.389Z,10.20
2023-02-28T18:48:06.858Z,10.10
2023-02-28T18:50:39.525Z,9.50
2023-02-28T18:53:06.928Z,9.23
2023-02-28T18:55:34.244Z,9.80
2023-02-28T18:58:01.549Z,9.75
2023-02-28T19:00:29.006Z,10.27
2023-02-28T19:02:56.576Z,10.18
2023-02-28T19:05:24.050Z,10.20
2023-02-28T19:07:51.429Z,10.70
2023-02-28T19:10:18.924Z,10.57
2023-02-28T19:12:47.100Z,10.18
2023-02-28T19:15:14.413Z,10.70
2023-02-28T19:17:42.042Z,11.45
2023-02-28T19:20:10.527Z,10.63
2023-02-28T19:22:38.621Z,10.57
2023-02-28T19:25:06.916Z,10.73
2023-02-28T19:27:34.359Z,11.95
2023-02-28T19:30:01.657Z,11.85
2023-02-28T19:32:29.186Z,12.02
2023-02-28T19:34:58.043Z,12.05
2023-02-28T19:37:25.440Z,11.07
2023-02-28T19:39:56.893Z,12.48
2023-02-28T19:42:24.803Z,11.38
2023-02-28T19:44:52.242Z,11.77
2023-02-28T19:47:19.622Z,13.00
2023-02-28T19:49:47.004Z,11.60
2023-02-28T19:52:15.542Z,12.90
2023-02-28T19:54:43.294Z,11.75
2023-02-28T19:57:10.916Z,12.45
2023-02-28T19:59:40.218Z,11.82
2023-02-28T20:02:19.180Z,11.23
2023-02-28T20:04:48.820Z,11.15
2023-02-28T20:07:20.209Z,11.48
2023-02-28T20:09:48.310Z,11.40
2023-02-28T20:12:24.035Z,12.60
2023-02-28T20:14:53.863Z,11.60
2023-02-28T20:17:21.276Z,12.30
2023-02-28T20:19:49.681Z,12.65
2023-02-28T20:22:19.193Z,13.43
2023-02-28T20:24:48.477Z,13.27
2023-02-28T20:27:15.898Z,13.80
2023-02-28T20:29:43.328Z,14.38
2023-02-28T20:32:10.869Z,14.27
2023-02-28T20:34:38.232Z,13.32
2023-02-28T20:37:05.656Z,13.73
2023-02-28T20:39:33.106Z,13.80
2023-02-28T20:42:00.524Z,12.20
2023-02-28T20:44:27.917Z,12.52
2023-02-28T20:46:55.389Z,13.05
2023-02-28T20:49:23.674Z,12.95
2023-02-28T20:51:51.131Z,13.43
2023-02-28T20:54:20.933Z,13.07
2023-02-28T20:56:48.360Z,12.93
2023-02-28T20:59:15.882Z,13.70
2023-02-28T21:01:43.454Z,12.70
2023-02-28T21:04:10.919Z,12.35
2023-02-28T21:06:43.137Z,13.52
2023-02-28T21:09:12.710Z,13.10
2023-02-28T21:11:41.073Z,13.48
2023-02-28T21:14:13.319Z,12.65
2023-02-28T21:16:41.510Z,13.07
2023-02-28T21:19:09.079Z,12.75
2023-02-28T21:21:43.817Z,12.98
2023-02-28T21:24:13.363Z,13.15
2023-02-28T21:26:41.899Z,13.27
2023-02-28T21:29:09.241Z,12.75
2023-02-28T21:31:38.284Z,12.77
2023-02-28T21:34:08.626Z,12.75
2023-02-28T21:36:39.676Z,12.40
2023-02-28T21:39:12.185Z,13.03
2023-02-28T21:41:39.949Z,11.00
2023-02-28T21:44:07.619Z,12.15
2023-02-28T21:46:35.242Z,11.38
2023-02-28T21:49:02.724Z,11.48
2023-02-28T21:51:31.523Z,11.40
2023-02-28T21:54:00.703Z,11.70
2023-02-28T21:56:31.002Z,11.70
2023-02-28T21:59:02.160Z,11.43
2023-02-28T22:01:37.892Z,11.73
2023-02-28T22:04:08.490Z,12.27
2023-02-28T22:06:39.445Z,12.18
2023-02-28T22:09:09.133Z,11.23
2023-02-28T22:11:37.905Z,11.60
2023-02-28T22:14:06.848Z,10.48
2023-02-28T22:16:49.592Z,9.57
2023-02-28T22:19:19.790Z,8.27
2023-02-28T22:21:47.764Z,7.90
2023-02-28T22:24:17.694Z,7.72
2023-02-28T22:26:45.585Z,7.32
2023-02-28T22:29:13.007Z,6.80
2023-02-28T22:31:40.403Z,6.60
2023-02-28T22:34:10.555Z,6.60
2023-02-28T22:36:40.106Z,6.60
2023-02-28T22:41:37.480Z,6.45
2023-02-28T22:44:05.747Z,6.05
2023-02-28T22:46:34.921Z,6.32
2023-02-28T22:49:04.053Z,6.13
2023-02-28T22:51:31.767Z,5.75
2023-02-28T22:53:59.166Z,6.15
2023-02-28T22:56:29.728Z,6.57
2023-02-28T22:58:59.543Z,6.75
2023-02-28T23:01:30.747Z,6.35
2023-02-28T23:03:59.165Z,6.20
2023-02-28T23:06:42.988Z,6.57
2023-02-28T23:09:18.196Z,6.72
2023-02-28T23:11:48.404Z,6.13
2023-02-28T23:14:17.358Z,6.30
2023-02-28T23:16:47.322Z,6.72
2023-02-28T23:19:17.893Z,6.63
2023-02-28T23:21:46.752Z,5.95
2023-02-28T23:24:16.452Z,6.55
2023-02-28T23:26:46.508Z,6.18
2023-02-28T23:29:15.539Z,5.82
2023-02-28T23:31:43.172Z,6.25
2023-02-28T23:34:11.326Z,5.78
2023-02-28T23:36:46.295Z,6.07
2023-02-28T23:39:16.878Z,6.10
2023-02-28T23:41:44.484Z,6.35
2023-02-28T23:44:16.848Z,5.70
2023-02-28T23:46:50.255Z,5.78
2023-02-28T23:49:21.606Z,6.30
2023-02-28T23:51:50.441Z,6.03
2023-02-28T23:54:18.950Z,6.13
2023-02-28T23:56:46.551Z,5.43
2023-02-28T23:59:14.155Z,6.28
